sensor_id;sensor_type;location;lat;lon;timestamp;P1;durP1;ratioP1;P2;durP2;ratioP2
74100;SDS011;62462;52.530;21.682;2022-10-22T00:02:24;60.33;;;25.98;;
74100;SDS011;62462;52.530;21.682;2022-10-22T00:04:51;59.83;;;25.67;;
74100;SDS011;62462;52.530;21.682;2022-10-22T00:07:18;54.92;;;24.75;;
74100;SDS011;62462;52.530;21.682;2022-10-22T00:09:44;45.42;;;21.10;;
74100;SDS011;62462;52.530;21.682;2022-10-22T00:12:11;36.28;;;17.98;;
74100;SDS011;62462;52.530;21.682;2022-10-22T00:14:38;30.80;;;14.98;;
74100;SDS011;62462;52.530;21.682;2022-10-22T00:17:04;31.70;;;15.80;;
74100;SDS011;62462;52.530;21.682;2022-10-22T00:19:30;31.92;;;14.40;;
74100;SDS011;62462;52.530;21.682;2022-10-22T00:21:55;26.95;;;14.50;;
74100;SDS011;62462;52.530;21.682;2022-10-22T00:24:22;24.08;;;13.98;;
74100;SDS011;62462;52.530;21.682;2022-10-22T00:26:48;23.67;;;13.93;;
74100;SDS011;62462;52.530;21.682;2022-10-22T00:29:14;26.60;;;14.15;;
74100;SDS011;62462;52.530;21.682;2022-10-22T00:31:42;26.85;;;14.07;;
74100;SDS011;62462;52.530;21.682;2022-10-22T00:34:13;24.77;;;13.25;;
74100;SDS011;62462;52.530;21.682;2022-10-22T00:36:40;27.00;;;13.65;;
74100;SDS011;62462;52.530;21.682;2022-10-22T00:39:06;49.00;;;19.73;;
74100;SDS011;62462;52.530;21.682;2022-10-22T00:41:32;47.60;;;19.95;;
74100;SDS011;62462;52.530;21.682;2022-10-22T00:43:58;46.65;;;18.90;;
74100;SDS011;62462;52.530;21.682;2022-10-22T00:46:26;38.15;;;17.50;;
74100;SDS011;62462;52.530;21.682;2022-10-22T00:48:52;32.47;;;16.27;;
74100;SDS011;62462;52.530;21.682;2022-10-22T00:51:20;30.38;;;13.98;;
74100;SDS011;62462;52.530;21.682;2022-10-22T00:53:48;22.17;;;12.65;;
74100;SDS011;62462;52.530;21.682;2022-10-22T00:56:18;24.92;;;13.10;;
74100;SDS011;62462;52.530;21.682;2022-10-22T00:58:48;24.98;;;13.52;;
74100;SDS011;62462;52.530;21.682;2022-10-22T01:01:20;20.52;;;12.85;;
74100;SDS011;62462;52.530;21.682;2022-10-22T01:03:49;23.58;;;12.30;;
74100;SDS011;62462;52.530;21.682;2022-10-22T01:06:20;21.13;;;12.75;;
74100;SDS011;62462;52.530;21.682;2022-10-22T01:21:45;30.95;;;16.17;;
74100;SDS011;62462;52.530;21.682;2022-10-22T01:29:50;22.13;;;12.40;;
74100;SDS011;62462;52.530;21.682;2022-10-22T01:35:21;27.25;;;12.85;;
74100;SDS011;62462;52.530;21.682;2022-10-22T01:37:53;24.17;;;13.10;;
74100;SDS011;62462;52.530;21.682;2022-10-22T01:40:22;21.80;;;13.48;;
74100;SDS011;62462;52.530;21.682;2022-10-22T01:45:21;20.55;;;13.10;;
74100;SDS011;62462;52.530;21.682;2022-10-22T01:50:44;19.65;;;12.05;;
74100;SDS011;62462;52.530;21.682;2022-10-22T02:04:35;21.63;;;12.30;;
74100;SDS011;62462;52.530;21.682;2022-10-22T02:07:10;22.38;;;13.00;;
74100;SDS011;62462;52.530;21.682;2022-10-22T02:09:39;21.75;;;12.73;;
74100;SDS011;62462;52.530;21.682;2022-10-22T02:12:08;21.05;;;13.07;;
74100;SDS011;62462;52.530;21.682;2022-10-22T02:14:36;22.48;;;12.60;;
74100;SDS011;62462;52.530;21.682;2022-10-22T02:17:05;24.23;;;12.73;;
74100;SDS011;62462;52.530;21.682;2022-10-22T02:19:37;25.58;;;14.13;;
74100;SDS011;62462;52.530;21.682;2022-10-22T02:22:24;24.58;;;13.77;;
74100;SDS011;62462;52.530;21.682;2022-10-22T02:24:51;30.40;;;16.63;;
74100;SDS011;62462;52.530;21.682;2022-10-22T02:27:22;33.13;;;17.23;;
74100;SDS011;62462;52.530;21.682;2022-10-22T02:32:33;26.48;;;14.95;;
74100;SDS011;62462;52.530;21.682;2022-10-22T02:35:20;22.98;;;13.90;;
74100;SDS011;62462;52.530;21.682;2022-10-22T02:37:48;25.13;;;13.98;;
74100;SDS011;62462;52.530;21.682;2022-10-22T02:40:15;28.92;;;15.52;;
74100;SDS011;62462;52.530;21.682;2022-10-22T02:42:41;23.13;;;14.45;;
74100;SDS011;62462;52.530;21.682;2022-10-22T02:45:08;32.58;;;15.48;;
74100;SDS011;62462;52.530;21.682;2022-10-22T02:47:34;25.42;;;14.82;;
74100;SDS011;62462;52.530;21.682;2022-10-22T02:50:00;24.00;;;14.30;;
74100;SDS011;62462;52.530;21.682;2022-10-22T02:52:25;22.10;;;13.27;;
74100;SDS011;62462;52.530;21.682;2022-10-22T02:54:51;24.83;;;14.40;;
74100;SDS011;62462;52.530;21.682;2022-10-22T02:57:17;27.15;;;14.65;;
74100;SDS011;62462;52.530;21.682;2022-10-22T02:59:42;23.15;;;14.07;;
74100;SDS011;62462;52.530;21.682;2022-10-22T03:02:08;24.15;;;14.48;;
74100;SDS011;62462;52.530;21.682;2022-10-22T03:04:34;26.70;;;14.43;;
74100;SDS011;62462;52.530;21.682;2022-10-22T03:06:59;21.00;;;12.45;;
74100;SDS011;62462;52.530;21.682;2022-10-22T03:09:25;23.50;;;14.02;;
74100;SDS011;62462;52.530;21.682;2022-10-22T03:11:51;25.40;;;13.93;;
74100;SDS011;62462;52.530;21.682;2022-10-22T03:14:16;24.33;;;14.40;;
74100;SDS011;62462;52.530;21.682;2022-10-22T03:16:42;24.85;;;13.95;;
74100;SDS011;62462;52.530;21.682;2022-10-22T03:19:08;23.33;;;15.35;;
74100;SDS011;62462;52.530;21.682;2022-10-22T03:21:44;23.70;;;15.05;;
74100;SDS011;62462;52.530;21.682;2022-10-22T03:24:15;25.77;;;14.32;;
74100;SDS011;62462;52.530;21.682;2022-10-22T03:26:44;22.13;;;13.82;;
74100;SDS011;62462;52.530;21.682;2022-10-22T03:29:13;24.48;;;14.95;;
74100;SDS011;62462;52.530;21.682;2022-10-22T03:31:40;26.10;;;14.25;;
74100;SDS011;62462;52.530;21.682;2022-10-22T03:34:06;22.35;;;13.40;;
74100;SDS011;62462;52.530;21.682;2022-10-22T03:36:31;21.75;;;12.65;;
74100;SDS011;62462;52.530;21.682;2022-10-22T03:39:01;23.90;;;13.13;;
74100;SDS011;62462;52.530;21.682;2022-10-22T03:41:28;25.55;;;14.30;;
74100;SDS011;62462;52.530;21.682;2022-10-22T03:43:54;21.05;;;13.90;;
74100;SDS011;62462;52.530;21.682;2022-10-22T03:46:21;25.67;;;14.50;;
74100;SDS011;62462;52.530;21.682;2022-10-22T03:48:47;24.48;;;14.80;;
74100;SDS011;62462;52.530;21.682;2022-10-22T03:51:12;24.00;;;14.68;;
74100;SDS011;62462;52.530;21.682;2022-10-22T03:53:38;24.98;;;14.27;;
74100;SDS011;62462;52.530;21.682;2022-10-22T03:56:08;23.48;;;14.82;;
74100;SDS011;62462;52.530;21.682;2022-10-22T03:58:35;23.77;;;14.57;;
74100;SDS011;62462;52.530;21.682;2022-10-22T04:01:05;22.38;;;14.70;;
74100;SDS011;62462;52.530;21.682;2022-10-22T04:03:32;24.50;;;13.52;;
74100;SDS011;62462;52.530;21.682;2022-10-22T04:06:05;24.80;;;14.43;;
74100;SDS011;62462;52.530;21.682;2022-10-22T04:08:40;25.25;;;15.13;;
74100;SDS011;62462;52.530;21.682;2022-10-22T04:11:07;24.77;;;14.85;;
74100;SDS011;62462;52.530;21.682;2022-10-22T04:13:33;27.02;;;14.93;;
74100;SDS011;62462;52.530;21.682;2022-10-22T04:16:13;27.38;;;15.38;;
74100;SDS011;62462;52.530;21.682;2022-10-22T04:18:44;22.98;;;14.60;;
74100;SDS011;62462;52.530;21.682;2022-10-22T04:21:11;27.00;;;14.77;;
74100;SDS011;62462;52.530;21.682;2022-10-22T04:23:43;25.25;;;16.02;;
74100;SDS011;62462;52.530;21.682;2022-10-22T04:26:09;25.88;;;16.25;;
74100;SDS011;62462;52.530;21.682;2022-10-22T04:28:35;21.45;;;14.05;;
74100;SDS011;62462;52.530;21.682;2022-10-22T04:31:06;28.45;;;16.33;;
74100;SDS011;62462;52.530;21.682;2022-10-22T04:33:37;24.45;;;15.50;;
74100;SDS011;62462;52.530;21.682;2022-10-22T04:36:07;25.35;;;15.50;;
74100;SDS011;62462;52.530;21.682;2022-10-22T04:38:40;27.90;;;16.88;;
74100;SDS011;62462;52.530;21.682;2022-10-22T04:41:10;28.75;;;16.70;;
74100;SDS011;62462;52.530;21.682;2022-10-22T04:43:38;27.58;;;16.50;;
74100;SDS011;62462;52.530;21.682;2022-10-22T04:46:04;26.08;;;15.73;;
74100;SDS011;62462;52.530;21.682;2022-10-22T04:48:33;28.77;;;16.95;;
74100;SDS011;62462;52.530;21.682;2022-10-22T04:51:00;26.35;;;16.73;;
74100;SDS011;62462;52.530;21.682;2022-10-22T04:53:25;25.17;;;15.95;;
74100;SDS011;62462;52.530;21.682;2022-10-22T04:55:51;27.55;;;16.10;;
74100;SDS011;62462;52.530;21.682;2022-10-22T04:58:17;27.75;;;16.00;;
74100;SDS011;62462;52.530;21.682;2022-10-22T05:00:43;24.50;;;16.08;;
74100;SDS011;62462;52.530;21.682;2022-10-22T05:03:08;27.10;;;16.30;;
74100;SDS011;62462;52.530;21.682;2022-10-22T05:05:34;27.65;;;15.80;;
74100;SDS011;62462;52.530;21.682;2022-10-22T05:08:00;26.23;;;15.15;;
74100;SDS011;62462;52.530;21.682;2022-10-22T05:10:25;21.33;;;14.52;;
74100;SDS011;62462;52.530;21.682;2022-10-22T05:12:52;22.60;;;14.35;;
74100;SDS011;62462;52.530;21.682;2022-10-22T05:15:18;24.15;;;15.68;;
74100;SDS011;62462;52.530;21.682;2022-10-22T05:17:43;26.67;;;15.70;;
74100;SDS011;62462;52.530;21.682;2022-10-22T05:20:09;25.23;;;15.15;;
74100;SDS011;62462;52.530;21.682;2022-10-22T05:22:35;21.08;;;13.68;;
74100;SDS011;62462;52.530;21.682;2022-10-22T05:25:01;19.13;;;12.75;;
74100;SDS011;62462;52.530;21.682;2022-10-22T05:27:26;18.75;;;11.85;;
74100;SDS011;62462;52.530;21.682;2022-10-22T05:29:52;20.08;;;12.75;;
74100;SDS011;62462;52.530;21.682;2022-10-22T05:32:18;21.83;;;14.05;;
74100;SDS011;62462;52.530;21.682;2022-10-22T05:34:43;19.77;;;12.18;;
74100;SDS011;62462;52.530;21.682;2022-10-22T05:37:09;24.00;;;14.10;;
74100;SDS011;62462;52.530;21.682;2022-10-22T05:39:35;21.60;;;13.50;;
74100;SDS011;62462;52.530;21.682;2022-10-22T05:42:04;18.48;;;12.63;;
74100;SDS011;62462;52.530;21.682;2022-10-22T05:44:29;22.02;;;14.02;;
74100;SDS011;62462;52.530;21.682;2022-10-22T05:46:55;19.48;;;11.93;;
74100;SDS011;62462;52.530;21.682;2022-10-22T05:49:21;19.73;;;12.80;;
74100;SDS011;62462;52.530;21.682;2022-10-22T05:51:46;18.80;;;12.27;;
74100;SDS011;62462;52.530;21.682;2022-10-22T05:54:16;20.25;;;12.63;;
74100;SDS011;62462;52.530;21.682;2022-10-22T05:56:44;20.05;;;11.65;;
74100;SDS011;62462;52.530;21.682;2022-10-22T05:59:10;19.92;;;12.60;;
74100;SDS011;62462;52.530;21.682;2022-10-22T06:01:37;21.60;;;13.07;;
74100;SDS011;62462;52.530;21.682;2022-10-22T06:04:04;19.63;;;12.40;;
74100;SDS011;62462;52.530;21.682;2022-10-22T06:09:19;20.52;;;13.25;;
74100;SDS011;62462;52.530;21.682;2022-10-22T06:11:51;19.55;;;12.70;;
74100;SDS011;62462;52.530;21.682;2022-10-22T06:14:18;22.70;;;13.43;;
74100;SDS011;62462;52.530;21.682;2022-10-22T06:16:44;20.63;;;13.85;;
74100;SDS011;62462;52.530;21.682;2022-10-22T06:19:10;23.70;;;14.43;;
74100;SDS011;62462;52.530;21.682;2022-10-22T06:21:38;23.25;;;14.25;;
74100;SDS011;62462;52.530;21.682;2022-10-22T06:24:04;22.73;;;13.88;;
74100;SDS011;62462;52.530;21.682;2022-10-22T06:26:30;20.38;;;13.18;;
74100;SDS011;62462;52.530;21.682;2022-10-22T06:28:55;23.08;;;14.27;;
74100;SDS011;62462;52.530;21.682;2022-10-22T06:31:22;22.80;;;14.20;;
74100;SDS011;62462;52.530;21.682;2022-10-22T06:33:49;21.33;;;13.32;;
74100;SDS011;62462;52.530;21.682;2022-10-22T06:36:16;26.17;;;15.32;;
74100;SDS011;62462;52.530;21.682;2022-10-22T06:38:44;26.88;;;15.93;;
74100;SDS011;62462;52.530;21.682;2022-10-22T06:41:10;24.60;;;15.20;;
74100;SDS011;62462;52.530;21.682;2022-10-22T06:43:38;24.52;;;14.65;;
74100;SDS011;62462;52.530;21.682;2022-10-22T06:46:06;29.73;;;15.90;;
74100;SDS011;62462;52.530;21.682;2022-10-22T06:48:36;26.73;;;15.70;;
74100;SDS011;62462;52.530;21.682;2022-10-22T06:51:04;29.55;;;17.38;;
74100;SDS011;62462;52.530;21.682;2022-10-22T06:53:32;27.10;;;15.60;;
74100;SDS011;62462;52.530;21.682;2022-10-22T06:55:58;27.65;;;14.80;;
74100;SDS011;62462;52.530;21.682;2022-10-22T06:58:28;27.48;;;16.45;;
74100;SDS011;62462;52.530;21.682;2022-10-22T07:01:04;30.60;;;16.02;;
74100;SDS011;62462;52.530;21.682;2022-10-22T07:03:31;27.05;;;15.73;;
74100;SDS011;62462;52.530;21.682;2022-10-22T07:06:01;23.33;;;13.43;;
74100;SDS011;62462;52.530;21.682;2022-10-22T07:08:28;21.75;;;13.88;;
74100;SDS011;62462;52.530;21.682;2022-10-22T07:10:54;26.88;;;16.23;;
74100;SDS011;62462;52.530;21.682;2022-10-22T07:13:20;25.55;;;15.30;;
74100;SDS011;62462;52.530;21.682;2022-10-22T07:15:51;26.60;;;15.57;;
74100;SDS011;62462;52.530;21.682;2022-10-22T07:18:18;28.45;;;17.52;;
74100;SDS011;62462;52.530;21.682;2022-10-22T07:20:44;29.58;;;16.67;;
74100;SDS011;62462;52.530;21.682;2022-10-22T07:23:11;27.23;;;17.13;;
74100;SDS011;62462;52.530;21.682;2022-10-22T07:25:36;29.95;;;18.45;;
74100;SDS011;62462;52.530;21.682;2022-10-22T07:28:02;28.38;;;17.45;;
74100;SDS011;62462;52.530;21.682;2022-10-22T07:30:28;32.22;;;19.08;;
74100;SDS011;62462;52.530;21.682;2022-10-22T07:32:53;32.33;;;18.30;;
74100;SDS011;62462;52.530;21.682;2022-10-22T07:35:19;31.10;;;18.33;;
74100;SDS011;62462;52.530;21.682;2022-10-22T07:37:45;26.80;;;16.52;;
74100;SDS011;62462;52.530;21.682;2022-10-22T07:40:10;27.27;;;17.52;;
74100;SDS011;62462;52.530;21.682;2022-10-22T07:42:36;29.02;;;17.23;;
74100;SDS011;62462;52.530;21.682;2022-10-22T07:45:02;27.02;;;16.70;;
74100;SDS011;62462;52.530;21.682;2022-10-22T07:47:28;32.53;;;19.58;;
74100;SDS011;62462;52.530;21.682;2022-10-22T07:49:53;34.25;;;20.73;;
74100;SDS011;62462;52.530;21.682;2022-10-22T07:52:19;33.15;;;19.35;;
74100;SDS011;62462;52.530;21.682;2022-10-22T07:54:45;30.67;;;18.67;;
74100;SDS011;62462;52.530;21.682;2022-10-22T07:57:10;29.15;;;17.63;;
74100;SDS011;62462;52.530;21.682;2022-10-22T07:59:36;30.00;;;18.55;;
74100;SDS011;62462;52.530;21.682;2022-10-22T08:02:02;28.25;;;18.05;;
74100;SDS011;62462;52.530;21.682;2022-10-22T08:04:27;27.65;;;16.63;;
74100;SDS011;62462;52.530;21.682;2022-10-22T08:06:53;28.08;;;17.75;;
74100;SDS011;62462;52.530;21.682;2022-10-22T08:09:18;30.08;;;16.08;;
74100;SDS011;62462;52.530;21.682;2022-10-22T08:11:44;28.63;;;17.20;;
74100;SDS011;62462;52.530;21.682;2022-10-22T08:14:11;26.25;;;17.75;;
74100;SDS011;62462;52.530;21.682;2022-10-22T08:16:36;27.58;;;18.05;;
74100;SDS011;62462;52.530;21.682;2022-10-22T08:19:02;29.17;;;19.02;;
74100;SDS011;62462;52.530;21.682;2022-10-22T08:21:28;27.88;;;16.38;;
74100;SDS011;62462;52.530;21.682;2022-10-22T08:23:54;27.58;;;17.55;;
74100;SDS011;62462;52.530;21.682;2022-10-22T08:26:20;29.55;;;17.35;;
74100;SDS011;62462;52.530;21.682;2022-10-22T08:28:45;24.25;;;16.45;;
74100;SDS011;62462;52.530;21.682;2022-10-22T08:31:11;24.45;;;16.80;;
74100;SDS011;62462;52.530;21.682;2022-10-22T08:33:37;33.67;;;20.15;;
74100;SDS011;62462;52.530;21.682;2022-10-22T08:36:03;30.85;;;18.40;;
74100;SDS011;62462;52.530;21.682;2022-10-22T08:38:29;30.85;;;17.92;;
74100;SDS011;62462;52.530;21.682;2022-10-22T08:40:57;31.85;;;19.58;;
74100;SDS011;62462;52.530;21.682;2022-10-22T08:43:34;28.88;;;18.70;;
74100;SDS011;62462;52.530;21.682;2022-10-22T08:48:53;28.30;;;17.85;;
74100;SDS011;62462;52.530;21.682;2022-10-22T08:51:22;30.35;;;17.90;;
74100;SDS011;62462;52.530;21.682;2022-10-22T09:02:19;31.60;;;19.88;;
74100;SDS011;62462;52.530;21.682;2022-10-22T09:05:12;30.27;;;19.15;;
74100;SDS011;62462;52.530;21.682;2022-10-22T09:07:43;34.90;;;21.08;;
74100;SDS011;62462;52.530;21.682;2022-10-22T09:10:14;34.63;;;20.55;;
74100;SDS011;62462;52.530;21.682;2022-10-22T09:12:46;30.92;;;18.90;;
74100;SDS011;62462;52.530;21.682;2022-10-22T09:15:13;31.75;;;19.17;;
74100;SDS011;62462;52.530;21.682;2022-10-22T09:17:54;34.65;;;19.52;;
74100;SDS011;62462;52.530;21.682;2022-10-22T09:20:35;35.47;;;19.30;;
74100;SDS011;62462;52.530;21.682;2022-10-22T09:25:56;31.23;;;19.70;;
74100;SDS011;62462;52.530;21.682;2022-10-22T09:28:23;33.22;;;19.30;;
74100;SDS011;62462;52.530;21.682;2022-10-22T09:31:10;30.42;;;19.92;;
74100;SDS011;62462;52.530;21.682;2022-10-22T09:33:37;36.47;;;21.23;;
74100;SDS011;62462;52.530;21.682;2022-10-22T09:36:04;33.85;;;21.00;;
74100;SDS011;62462;52.530;21.682;2022-10-22T09:38:43;34.20;;;19.23;;
74100;SDS011;62462;52.530;21.682;2022-10-22T09:41:15;31.00;;;19.65;;
74100;SDS011;62462;52.530;21.682;2022-10-22T09:43:45;34.70;;;20.40;;
74100;SDS011;62462;52.530;21.682;2022-10-22T09:46:14;36.88;;;20.40;;
74100;SDS011;62462;52.530;21.682;2022-10-22T09:48:42;33.40;;;19.63;;
74100;SDS011;62462;52.530;21.682;2022-10-22T09:51:24;34.88;;;19.25;;
74100;SDS011;62462;52.530;21.682;2022-10-22T09:57:12;35.67;;;20.38;;
74100;SDS011;62462;52.530;21.682;2022-10-22T09:59:41;35.42;;;21.35;;
74100;SDS011;62462;52.530;21.682;2022-10-22T10:02:12;31.05;;;18.42;;
74100;SDS011;62462;52.530;21.682;2022-10-22T10:04:50;33.03;;;18.98;;
74100;SDS011;62462;52.530;21.682;2022-10-22T10:09:48;30.52;;;17.25;;
74100;SDS011;62462;52.530;21.682;2022-10-22T10:20:28;29.40;;;18.10;;
74100;SDS011;62462;52.530;21.682;2022-10-22T10:34:18;34.75;;;19.95;;
74100;SDS011;62462;52.530;21.682;2022-10-22T10:42:14;34.88;;;20.48;;
74100;SDS011;62462;52.530;21.682;2022-10-22T11:01:14;36.13;;;17.48;;
74100;SDS011;62462;52.530;21.682;2022-10-22T11:06:57;37.42;;;21.33;;
74100;SDS011;62462;52.530;21.682;2022-10-22T11:09:27;30.25;;;18.30;;
74100;SDS011;62462;52.530;21.682;2022-10-22T11:14:29;30.30;;;18.52;;
74100;SDS011;62462;52.530;21.682;2022-10-22T11:17:13;31.10;;;17.77;;
74100;SDS011;62462;52.530;21.682;2022-10-22T11:22:18;32.17;;;18.85;;
74100;SDS011;62462;52.530;21.682;2022-10-22T11:27:44;42.28;;;23.85;;
74100;SDS011;62462;52.530;21.682;2022-10-22T11:30:19;40.50;;;22.48;;
74100;SDS011;62462;52.530;21.682;2022-10-22T11:32:47;38.78;;;19.83;;
74100;SDS011;62462;52.530;21.682;2022-10-22T11:35:19;39.40;;;21.08;;
74100;SDS011;62462;52.530;21.682;2022-10-22T11:38:05;35.08;;;20.40;;
74100;SDS011;62462;52.530;21.682;2022-10-22T11:40:35;33.78;;;20.23;;
74100;SDS011;62462;52.530;21.682;2022-10-22T11:43:07;34.17;;;18.83;;
74100;SDS011;62462;52.530;21.682;2022-10-22T11:45:41;31.88;;;19.27;;
74100;SDS011;62462;52.530;21.682;2022-10-22T11:50:44;39.78;;;20.50;;
74100;SDS011;62462;52.530;21.682;2022-10-22T11:55:55;28.35;;;17.77;;
74100;SDS011;62462;52.530;21.682;2022-10-22T12:00:52;38.33;;;20.70;;
74100;SDS011;62462;52.530;21.682;2022-10-22T12:08:42;32.85;;;19.02;;
74100;SDS011;62462;52.530;21.682;2022-10-22T12:16:25;36.60;;;21.30;;
74100;SDS011;62462;52.530;21.682;2022-10-22T12:21:34;42.55;;;22.30;;
74100;SDS011;62462;52.530;21.682;2022-10-22T12:24:03;42.92;;;22.65;;
74100;SDS011;62462;52.530;21.682;2022-10-22T12:26:30;50.78;;;25.52;;
74100;SDS011;62462;52.530;21.682;2022-10-22T12:28:59;43.42;;;22.35;;
74100;SDS011;62462;52.530;21.682;2022-10-22T12:31:27;43.38;;;24.52;;
74100;SDS011;62462;52.530;21.682;2022-10-22T12:34:00;42.25;;;21.70;;
74100;SDS011;62462;52.530;21.682;2022-10-22T12:36:26;44.60;;;22.08;;
74100;SDS011;62462;52.530;21.682;2022-10-22T12:39:08;50.13;;;22.25;;
74100;SDS011;62462;52.530;21.682;2022-10-22T12:41:37;46.95;;;23.50;;
74100;SDS011;62462;52.530;21.682;2022-10-22T12:44:04;47.45;;;23.80;;
74100;SDS011;62462;52.530;21.682;2022-10-22T12:46:31;46.25;;;22.35;;
74100;SDS011;62462;52.530;21.682;2022-10-22T12:48:59;36.53;;;20.70;;
74100;SDS011;62462;52.530;21.682;2022-10-22T12:51:30;42.15;;;23.60;;
74100;SDS011;62462;52.530;21.682;2022-10-22T12:53:58;44.28;;;22.75;;
74100;SDS011;62462;52.530;21.682;2022-10-22T12:56:31;42.53;;;22.67;;
74100;SDS011;62462;52.530;21.682;2022-10-22T12:59:02;54.97;;;25.75;;
74100;SDS011;62462;52.530;21.682;2022-10-22T13:01:36;48.30;;;23.20;;
74100;SDS011;62462;52.530;21.682;2022-10-22T13:04:05;44.80;;;23.30;;
74100;SDS011;62462;52.530;21.682;2022-10-22T13:07:13;40.45;;;20.95;;
74100;SDS011;62462;52.530;21.682;2022-10-22T13:09:37;44.83;;;22.52;;
74100;SDS011;62462;52.530;21.682;2022-10-22T13:12:05;52.05;;;24.30;;
74100;SDS011;62462;52.530;21.682;2022-10-22T13:14:33;60.67;;;29.30;;
74100;SDS011;62462;52.530;21.682;2022-10-22T13:27:29;46.88;;;24.17;;
74100;SDS011;62462;52.530;21.682;2022-10-22T13:29:55;50.47;;;24.83;;
74100;SDS011;62462;52.530;21.682;2022-10-22T13:32:29;45.85;;;23.58;;
74100;SDS011;62462;52.530;21.682;2022-10-22T13:35:01;50.00;;;25.55;;
74100;SDS011;62462;52.530;21.682;2022-10-22T13:37:29;50.83;;;24.92;;
74100;SDS011;62462;52.530;21.682;2022-10-22T13:39:57;57.65;;;28.35;;
74100;SDS011;62462;52.530;21.682;2022-10-22T13:42:22;48.25;;;25.45;;
74100;SDS011;62462;52.530;21.682;2022-10-22T13:44:49;49.22;;;27.02;;
74100;SDS011;62462;52.530;21.682;2022-10-22T13:47:27;55.63;;;26.38;;
74100;SDS011;62462;52.530;21.682;2022-10-22T13:49:54;52.22;;;25.90;;
74100;SDS011;62462;52.530;21.682;2022-10-22T13:52:27;47.35;;;25.30;;
74100;SDS011;62462;52.530;21.682;2022-10-22T13:54:58;49.80;;;24.50;;
74100;SDS011;62462;52.530;21.682;2022-10-22T13:57:23;46.25;;;25.20;;
74100;SDS011;62462;52.530;21.682;2022-10-22T13:59:49;52.35;;;25.50;;
74100;SDS011;62462;52.530;21.682;2022-10-22T14:02:15;56.28;;;27.60;;
74100;SDS011;62462;52.530;21.682;2022-10-22T14:04:48;49.25;;;25.70;;
74100;SDS011;62462;52.530;21.682;2022-10-22T14:07:26;56.63;;;28.98;;
74100;SDS011;62462;52.530;21.682;2022-10-22T14:09:53;46.85;;;25.60;;
74100;SDS011;62462;52.530;21.682;2022-10-22T14:12:18;49.47;;;25.50;;
74100;SDS011;62462;52.530;21.682;2022-10-22T14:14:44;51.95;;;28.23;;
74100;SDS011;62462;52.530;21.682;2022-10-22T14:17:13;48.50;;;25.98;;
74100;SDS011;62462;52.530;21.682;2022-10-22T14:19:44;50.25;;;25.27;;
74100;SDS011;62462;52.530;21.682;2022-10-22T14:22:15;48.97;;;23.77;;
74100;SDS011;62462;52.530;21.682;2022-10-22T14:24:43;45.70;;;24.85;;
74100;SDS011;62462;52.530;21.682;2022-10-22T14:27:13;42.10;;;23.60;;
74100;SDS011;62462;52.530;21.682;2022-10-22T14:29:39;51.25;;;27.33;;
74100;SDS011;62462;52.530;21.682;2022-10-22T14:32:11;50.40;;;27.33;;
74100;SDS011;62462;52.530;21.682;2022-10-22T14:34:38;52.88;;;25.88;;
74100;SDS011;62462;52.530;21.682;2022-10-22T14:37:08;54.80;;;28.58;;
74100;SDS011;62462;52.530;21.682;2022-10-22T14:39:41;49.83;;;27.27;;
74100;SDS011;62462;52.530;21.682;2022-10-22T14:42:09;49.05;;;27.23;;
74100;SDS011;62462;52.530;21.682;2022-10-22T14:44:35;62.75;;;31.73;;
74100;SDS011;62462;52.530;21.682;2022-10-22T14:47:01;52.15;;;26.75;;
74100;SDS011;62462;52.530;21.682;2022-10-22T14:49:27;55.88;;;27.65;;
74100;SDS011;62462;52.530;21.682;2022-10-22T14:51:52;53.35;;;27.65;;
74100;SDS011;62462;52.530;21.682;2022-10-22T14:54:18;60.55;;;27.58;;
74100;SDS011;62462;52.530;21.682;2022-10-22T14:56:44;54.80;;;26.98;;
74100;SDS011;62462;52.530;21.682;2022-10-22T14:59:09;63.47;;;29.17;;
74100;SDS011;62462;52.530;21.682;2022-10-22T15:01:35;57.65;;;29.55;;
74100;SDS011;62462;52.530;21.682;2022-10-22T15:04:02;64.65;;;28.00;;
74100;SDS011;62462;52.530;21.682;2022-10-22T15:06:28;53.85;;;26.38;;
74100;SDS011;62462;52.530;21.682;2022-10-22T15:08:54;62.33;;;29.35;;
74100;SDS011;62462;52.530;21.682;2022-10-22T15:11:20;62.53;;;28.90;;
74100;SDS011;62462;52.530;21.682;2022-10-22T15:13:46;61.28;;;28.10;;
74100;SDS011;62462;52.530;21.682;2022-10-22T15:16:12;55.78;;;27.98;;
74100;SDS011;62462;52.530;21.682;2022-10-22T15:18:39;61.22;;;29.17;;
74100;SDS011;62462;52.530;21.682;2022-10-22T15:21:06;60.20;;;29.23;;
74100;SDS011;62462;52.530;21.682;2022-10-22T15:23:43;56.78;;;29.08;;
74100;SDS011;62462;52.530;21.682;2022-10-22T15:26:10;56.38;;;28.73;;
74100;SDS011;62462;52.530;21.682;2022-10-22T15:28:37;51.10;;;27.23;;
74100;SDS011;62462;52.530;21.682;2022-10-22T15:31:04;53.42;;;29.77;;
74100;SDS011;62462;52.530;21.682;2022-10-22T15:33:30;51.88;;;26.95;;
74100;SDS011;62462;52.530;21.682;2022-10-22T15:35:56;49.83;;;26.38;;
74100;SDS011;62462;52.530;21.682;2022-10-22T15:38:28;55.28;;;27.60;;
74100;SDS011;62462;52.530;21.682;2022-10-22T15:41:01;51.35;;;27.27;;
74100;SDS011;62462;52.530;21.682;2022-10-22T15:43:32;53.72;;;28.75;;
74100;SDS011;62462;52.530;21.682;2022-10-22T15:46:07;59.05;;;29.42;;
74100;SDS011;62462;52.530;21.682;2022-10-22T15:48:37;51.50;;;26.52;;
74100;SDS011;62462;52.530;21.682;2022-10-22T15:51:10;59.20;;;28.27;;
74100;SDS011;62462;52.530;21.682;2022-10-22T15:53:38;50.58;;;26.38;;
74100;SDS011;62462;52.530;21.682;2022-10-22T15:56:04;54.65;;;28.50;;
74100;SDS011;62462;52.530;21.682;2022-10-22T15:58:30;60.33;;;30.20;;
74100;SDS011;62462;52.530;21.682;2022-10-22T16:01:03;56.30;;;28.63;;
74100;SDS011;62462;52.530;21.682;2022-10-22T16:03:31;52.22;;;27.98;;
74100;SDS011;62462;52.530;21.682;2022-10-22T16:05:56;62.30;;;31.23;;
74100;SDS011;62462;52.530;21.682;2022-10-22T16:08:22;55.20;;;29.17;;
74100;SDS011;62462;52.530;21.682;2022-10-22T16:10:48;54.42;;;28.60;;
74100;SDS011;62462;52.530;21.682;2022-10-22T16:13:14;62.22;;;31.33;;
74100;SDS011;62462;52.530;21.682;2022-10-22T16:15:40;58.60;;;31.17;;
74100;SDS011;62462;52.530;21.682;2022-10-22T16:18:06;66.18;;;33.15;;
74100;SDS011;62462;52.530;21.682;2022-10-22T16:20:31;68.07;;;33.60;;
74100;SDS011;62462;52.530;21.682;2022-10-22T16:23:02;60.45;;;33.03;;
74100;SDS011;62462;52.530;21.682;2022-10-22T16:25:27;61.75;;;31.00;;
74100;SDS011;62462;52.530;21.682;2022-10-22T16:27:53;64.95;;;34.92;;
74100;SDS011;62462;52.530;21.682;2022-10-22T16:30:19;61.80;;;33.63;;
74100;SDS011;62462;52.530;21.682;2022-10-22T16:32:44;70.80;;;33.17;;
74100;SDS011;62462;52.530;21.682;2022-10-22T16:35:10;100.82;;;40.78;;
74100;SDS011;62462;52.530;21.682;2022-10-22T16:37:36;73.30;;;37.08;;
74100;SDS011;62462;52.530;21.682;2022-10-22T16:40:03;72.20;;;36.47;;
74100;SDS011;62462;52.530;21.682;2022-10-22T16:42:29;69.40;;;36.25;;
74100;SDS011;62462;52.530;21.682;2022-10-22T16:44:54;70.07;;;35.58;;